sensor_id;sensor_type;location;lat;lon;timestamp;P1;durP1;ratioP1;P2;durP2;ratioP2
57395;SDS011;43222;52.912;6.940;2022-11-15T00:00:10;30.67;;;23.38;;
57395;SDS011;43222;52.912;6.940;2022-11-15T00:02:36;29.98;;;22.00;;
57395;SDS011;43222;52.912;6.940;2022-11-15T00:05:02;28.60;;;21.92;;
57395;SDS011;43222;52.912;6.940;2022-11-15T00:07:28;29.20;;;21.48;;
57395;SDS011;43222;52.912;6.940;2022-11-15T00:09:54;26.63;;;20.92;;
57395;SDS011;43222;52.912;6.940;2022-11-15T00:12:20;29.98;;;20.83;;
57395;SDS011;43222;52.912;6.940;2022-11-15T00:14:46;27.52;;;20.08;;
57395;SDS011;43222;52.912;6.940;2022-11-15T00:17:12;25.05;;;20.20;;
57395;SDS011;43222;52.912;6.940;2022-11-15T00:19:38;25.95;;;19.05;;
57395;SDS011;43222;52.912;6.940;2022-11-15T00:22:04;25.05;;;19.75;;
57395;SDS011;43222;52.912;6.940;2022-11-15T00:24:30;26.92;;;19.75;;
57395;SDS011;43222;52.912;6.940;2022-11-15T00:26:56;27.77;;;20.42;;
57395;SDS011;43222;52.912;6.940;2022-11-15T00:29:22;27.42;;;20.67;;
57395;SDS011;43222;52.912;6.940;2022-11-15T00:31:48;24.38;;;19.23;;
57395;SDS011;43222;52.912;6.940;2022-11-15T00:34:14;25.38;;;19.58;;
57395;SDS011;43222;52.912;6.940;2022-11-15T00:36:40;28.42;;;20.50;;
57395;SDS011;43222;52.912;6.940;2022-11-15T00:39:06;28.27;;;20.65;;
57395;SDS011;43222;52.912;6.940;2022-11-15T00:41:32;28.65;;;21.83;;
57395;SDS011;43222;52.912;6.940;2022-11-15T00:43:58;30.20;;;23.38;;
57395;SDS011;43222;52.912;6.940;2022-11-15T00:46:24;29.42;;;23.85;;
57395;SDS011;43222;52.912;6.940;2022-11-15T00:48:50;29.67;;;23.10;;
57395;SDS011;43222;52.912;6.940;2022-11-15T00:51:16;28.27;;;22.60;;
57395;SDS011;43222;52.912;6.940;2022-11-15T00:53:42;27.13;;;22.02;;
57395;SDS011;43222;52.912;6.940;2022-11-15T00:56:08;26.05;;;20.45;;
57395;SDS011;43222;52.912;6.940;2022-11-15T00:58:34;26.95;;;21.60;;
57395;SDS011;43222;52.912;6.940;2022-11-15T01:01:07;28.90;;;21.48;;
57395;SDS011;43222;52.912;6.940;2022-11-15T01:03:34;27.90;;;21.90;;
57395;SDS011;43222;52.912;6.940;2022-11-15T01:06:00;31.00;;;22.25;;
57395;SDS011;43222;52.912;6.940;2022-11-15T01:08:26;29.63;;;23.08;;
57395;SDS011;43222;52.912;6.940;2022-11-15T01:10:52;30.63;;;22.75;;
57395;SDS011;43222;52.912;6.940;2022-11-15T01:13:18;27.02;;;21.88;;
57395;SDS011;43222;52.912;6.940;2022-11-15T01:15:44;31.27;;;23.30;;
57395;SDS011;43222;52.912;6.940;2022-11-15T01:18:10;32.30;;;24.20;;
57395;SDS011;43222;52.912;6.940;2022-11-15T01:20:40;29.60;;;22.70;;
57395;SDS011;43222;52.912;6.940;2022-11-15T01:23:06;31.70;;;23.40;;
57395;SDS011;43222;52.912;6.940;2022-11-15T01:25:32;29.33;;;21.92;;
57395;SDS011;43222;52.912;6.940;2022-11-15T01:27:58;28.67;;;21.02;;
57395;SDS011;43222;52.912;6.940;2022-11-15T01:30:24;30.35;;;23.02;;
57395;SDS011;43222;52.912;6.940;2022-11-15T01:32:50;29.88;;;22.17;;
57395;SDS011;43222;52.912;6.940;2022-11-15T01:35:16;28.92;;;21.67;;
57395;SDS011;43222;52.912;6.940;2022-11-15T01:37:42;33.28;;;22.27;;
57395;SDS011;43222;52.912;6.940;2022-11-15T01:40:08;28.67;;;21.75;;
57395;SDS011;43222;52.912;6.940;2022-11-15T01:42:35;31.08;;;21.85;;
57395;SDS011;43222;52.912;6.940;2022-11-15T01:45:01;30.38;;;22.88;;
57395;SDS011;43222;52.912;6.940;2022-11-15T01:47:39;29.05;;;21.45;;
57395;SDS011;43222;52.912;6.940;2022-11-15T01:50:09;28.45;;;21.85;;
57395;SDS011;43222;52.912;6.940;2022-11-15T01:52:36;31.48;;;22.73;;
57395;SDS011;43222;52.912;6.940;2022-11-15T01:55:10;31.67;;;22.27;;
57395;SDS011;43222;52.912;6.940;2022-11-15T01:57:37;32.28;;;22.05;;
57395;SDS011;43222;52.912;6.940;2022-11-15T02:00:04;29.23;;;21.65;;
57395;SDS011;43222;52.912;6.940;2022-11-15T02:02:31;31.23;;;22.10;;
57395;SDS011;43222;52.912;6.940;2022-11-15T02:04:57;30.00;;;21.70;;
57395;SDS011;43222;52.912;6.940;2022-11-15T02:07:23;30.80;;;20.98;;
57395;SDS011;43222;52.912;6.940;2022-11-15T02:09:49;31.00;;;21.38;;
57395;SDS011;43222;52.912;6.940;2022-11-15T02:12:17;29.10;;;22.35;;
57395;SDS011;43222;52.912;6.940;2022-11-15T02:14:47;28.65;;;21.48;;
57395;SDS011;43222;52.912;6.940;2022-11-15T02:27:56;29.52;;;21.45;;
57395;SDS011;43222;52.912;6.940;2022-11-15T02:32:57;31.15;;;20.75;;
57395;SDS011;43222;52.912;6.940;2022-11-15T02:35:37;34.40;;;22.50;;
57395;SDS011;43222;52.912;6.940;2022-11-15T02:38:17;30.88;;;20.92;;
57395;SDS011;43222;52.912;6.940;2022-11-15T02:41:00;32.17;;;20.83;;
57395;SDS011;43222;52.912;6.940;2022-11-15T02:43:45;32.50;;;20.65;;
57395;SDS011;43222;52.912;6.940;2022-11-15T02:46:29;31.80;;;21.52;;
57395;SDS011;43222;52.912;6.940;2022-11-15T02:49:16;37.00;;;22.27;;
57395;SDS011;43222;52.912;6.940;2022-11-15T02:51:43;35.60;;;22.00;;
57395;SDS011;43222;52.912;6.940;2022-11-15T02:54:14;34.97;;;22.60;;
57395;SDS011;43222;52.912;6.940;2022-11-15T02:56:42;38.30;;;22.67;;
57395;SDS011;43222;52.912;6.940;2022-11-15T02:59:13;39.88;;;23.05;;
57395;SDS011;43222;52.912;6.940;2022-11-15T03:01:56;36.28;;;23.05;;
57395;SDS011;43222;52.912;6.940;2022-11-15T03:04:34;34.25;;;22.02;;
57395;SDS011;43222;52.912;6.940;2022-11-15T03:12:09;34.30;;;22.50;;
57395;SDS011;43222;52.912;6.940;2022-11-15T03:14:39;35.97;;;22.48;;
57395;SDS011;43222;52.912;6.940;2022-11-15T03:17:14;33.22;;;22.08;;
57395;SDS011;43222;52.912;6.940;2022-11-15T03:19:48;37.17;;;23.33;;
57395;SDS011;43222;52.912;6.940;2022-11-15T03:22:19;39.28;;;23.38;;
57395;SDS011;43222;52.912;6.940;2022-11-15T03:24:46;36.35;;;23.02;;
57395;SDS011;43222;52.912;6.940;2022-11-15T03:27:14;41.58;;;23.50;;
57395;SDS011;43222;52.912;6.940;2022-11-15T03:29:43;37.22;;;23.98;;
57395;SDS011;43222;52.912;6.940;2022-11-15T03:32:15;40.55;;;24.58;;
57395;SDS011;43222;52.912;6.940;2022-11-15T03:34:44;35.78;;;24.25;;
57395;SDS011;43222;52.912;6.940;2022-11-15T03:37:11;38.45;;;23.67;;
57395;SDS011;43222;52.912;6.940;2022-11-15T03:39:39;44.03;;;24.42;;
57395;SDS011;43222;52.912;6.940;2022-11-15T03:47:05;41.33;;;25.27;;
57395;SDS011;43222;52.912;6.940;2022-11-15T03:49:33;39.08;;;24.55;;
57395;SDS011;43222;52.912;6.940;2022-11-15T03:52:00;37.88;;;24.55;;
57395;SDS011;43222;52.912;6.940;2022-11-15T03:54:26;40.70;;;25.17;;
57395;SDS011;43222;52.912;6.940;2022-11-15T03:56:52;40.90;;;24.83;;
57395;SDS011;43222;52.912;6.940;2022-11-15T03:59:18;40.53;;;25.58;;
57395;SDS011;43222;52.912;6.940;2022-11-15T04:01:45;40.03;;;26.13;;
57395;SDS011;43222;52.912;6.940;2022-11-15T04:04:11;44.30;;;26.42;;
57395;SDS011;43222;52.912;6.940;2022-11-15T04:06:37;44.72;;;26.23;;
57395;SDS011;43222;52.912;6.940;2022-11-15T04:09:03;43.45;;;26.95;;
57395;SDS011;43222;52.912;6.940;2022-11-15T04:11:29;42.63;;;27.45;;
57395;SDS011;43222;52.912;6.940;2022-11-15T04:13:55;45.13;;;28.10;;
57395;SDS011;43222;52.912;6.940;2022-11-15T04:16:21;44.17;;;27.65;;
57395;SDS011;43222;52.912;6.940;2022-11-15T04:18:47;52.60;;;28.95;;
57395;SDS011;43222;52.912;6.940;2022-11-15T04:21:33;56.15;;;30.05;;
57395;SDS011;43222;52.912;6.940;2022-11-15T04:24:18;56.72;;;30.73;;
57395;SDS011;43222;52.912;6.940;2022-11-15T04:26:44;58.85;;;32.15;;
57395;SDS011;43222;52.912;6.940;2022-11-15T04:29:10;61.50;;;32.78;;
57395;SDS011;43222;52.912;6.940;2022-11-15T04:31:55;68.18;;;33.85;;
57395;SDS011;43222;52.912;6.940;2022-11-15T04:34:21;67.47;;;34.35;;
57395;SDS011;43222;52.912;6.940;2022-11-15T04:36:47;65.00;;;35.10;;
57395;SDS011;43222;52.912;6.940;2022-11-15T04:39:32;60.10;;;33.13;;
57395;SDS011;43222;52.912;6.940;2022-11-15T04:41:58;74.22;;;37.15;;
57395;SDS011;43222;52.912;6.940;2022-11-15T04:44:24;76.72;;;36.75;;
57395;SDS011;43222;52.912;6.940;2022-11-15T04:46:50;74.38;;;37.85;;
57395;SDS011;43222;52.912;6.940;2022-11-15T04:49:16;89.70;;;39.28;;
57395;SDS011;43222;52.912;6.940;2022-11-15T04:51:42;80.25;;;37.80;;
57395;SDS011;43222;52.912;6.940;2022-11-15T04:54:08;86.95;;;38.88;;
57395;SDS011;43222;52.912;6.940;2022-11-15T04:56:34;71.60;;;37.53;;
57395;SDS011;43222;52.912;6.940;2022-11-15T04:59:00;80.45;;;38.28;;
57395;SDS011;43222;52.912;6.940;2022-11-15T05:01:26;81.00;;;37.28;;
57395;SDS011;43222;52.912;6.940;2022-11-15T05:03:52;77.90;;;38.70;;
57395;SDS011;43222;52.912;6.940;2022-11-15T05:06:36;83.60;;;39.28;;
57395;SDS011;43222;52.912;6.940;2022-11-15T05:09:02;72.13;;;37.38;;
57395;SDS011;43222;52.912;6.940;2022-11-15T05:11:28;70.55;;;36.92;;
57395;SDS011;43222;52.912;6.940;2022-11-15T05:13:54;67.30;;;36.97;;
57395;SDS011;43222;52.912;6.940;2022-11-15T05:16:20;75.40;;;36.85;;
57395;SDS011;43222;52.912;6.940;2022-11-15T05:18:46;70.75;;;37.47;;
57395;SDS011;43222;52.912;6.940;2022-11-15T05:21:13;61.90;;;34.80;;
57395;SDS011;43222;52.912;6.940;2022-11-15T05:23:40;73.35;;;37.35;;
57395;SDS011;43222;52.912;6.940;2022-11-15T05:26:06;73.85;;;37.13;;
57395;SDS011;43222;52.912;6.940;2022-11-15T05:28:33;65.10;;;36.47;;
57395;SDS011;43222;52.912;6.940;2022-11-15T05:31:00;65.88;;;35.90;;
57395;SDS011;43222;52.912;6.940;2022-11-15T05:33:27;67.28;;;35.85;;
57395;SDS011;43222;52.912;6.940;2022-11-15T05:35:57;63.60;;;35.55;;
57395;SDS011;43222;52.912;6.940;2022-11-15T05:38:26;68.03;;;36.00;;
57395;SDS011;43222;52.912;6.940;2022-11-15T05:40:52;69.78;;;37.05;;
57395;SDS011;43222;52.912;6.940;2022-11-15T05:43:18;69.75;;;35.15;;
57395;SDS011;43222;52.912;6.940;2022-11-15T05:45:44;60.05;;;33.35;;
57395;SDS011;43222;52.912;6.940;2022-11-15T05:48:10;61.13;;;35.45;;
57395;SDS011;43222;52.912;6.940;2022-11-15T05:50:38;66.63;;;34.35;;
57395;SDS011;43222;52.912;6.940;2022-11-15T05:53:04;55.72;;;33.83;;
57395;SDS011;43222;52.912;6.940;2022-11-15T05:55:30;55.92;;;32.45;;
57395;SDS011;43222;52.912;6.940;2022-11-15T05:57:57;56.47;;;33.72;;
57395;SDS011;43222;52.912;6.940;2022-11-15T06:00:23;51.00;;;32.03;;
57395;SDS011;43222;52.912;6.940;2022-11-15T06:02:49;51.67;;;32.45;;
57395;SDS011;43222;52.912;6.940;2022-11-15T06:05:15;53.05;;;32.08;;
57395;SDS011;43222;52.912;6.940;2022-11-15T06:07:41;53.53;;;31.92;;
57395;SDS011;43222;52.912;6.940;2022-11-15T06:10:09;50.45;;;30.77;;
57395;SDS011;43222;52.912;6.940;2022-11-15T06:12:35;50.63;;;32.00;;
57395;SDS011;43222;52.912;6.940;2022-11-15T06:15:01;55.55;;;32.63;;
57395;SDS011;43222;52.912;6.940;2022-11-15T06:17:27;53.08;;;32.13;;
57395;SDS011;43222;52.912;6.940;2022-11-15T06:19:53;49.92;;;31.52;;
57395;SDS011;43222;52.912;6.940;2022-11-15T06:22:19;55.08;;;32.60;;
57395;SDS011;43222;52.912;6.940;2022-11-15T06:24:45;54.33;;;31.90;;
57395;SDS011;43222;52.912;6.940;2022-11-15T06:27:11;55.15;;;32.33;;
57395;SDS011;43222;52.912;6.940;2022-11-15T06:29:37;54.20;;;31.92;;
57395;SDS011;43222;52.912;6.940;2022-11-15T06:32:03;53.75;;;32.80;;
57395;SDS011;43222;52.912;6.940;2022-11-15T06:34:29;50.03;;;32.20;;
57395;SDS011;43222;52.912;6.940;2022-11-15T06:36:56;52.97;;;32.60;;
57395;SDS011;43222;52.912;6.940;2022-11-15T06:39:22;48.63;;;32.38;;
57395;SDS011;43222;52.912;6.940;2022-11-15T06:41:48;51.92;;;32.35;;
57395;SDS011;43222;52.912;6.940;2022-11-15T06:44:14;52.90;;;32.97;;
57395;SDS011;43222;52.912;6.940;2022-11-15T06:46:41;54.65;;;31.33;;
57395;SDS011;43222;52.912;6.940;2022-11-15T06:49:07;52.60;;;31.70;;
57395;SDS011;43222;52.912;6.940;2022-11-15T06:51:33;52.72;;;31.73;;
57395;SDS011;43222;52.912;6.940;2022-11-15T06:53:59;47.45;;;32.55;;
57395;SDS011;43222;52.912;6.940;2022-11-15T06:56:25;51.03;;;33.22;;
57395;SDS011;43222;52.912;6.940;2022-11-15T06:58:51;52.53;;;30.75;;
57395;SDS011;43222;52.912;6.940;2022-11-15T07:01:17;55.88;;;32.92;;
57395;SDS011;43222;52.912;6.940;2022-11-15T07:03:43;50.80;;;31.85;;
57395;SDS011;43222;52.912;6.940;2022-11-15T07:06:11;50.13;;;31.65;;
57395;SDS011;43222;52.912;6.940;2022-11-15T07:08:37;48.40;;;32.00;;
57395;SDS011;43222;52.912;6.940;2022-11-15T07:11:05;51.35;;;31.80;;
57395;SDS011;43222;52.912;6.940;2022-11-15T07:13:31;56.80;;;31.25;;
57395;SDS011;43222;52.912;6.940;2022-11-15T07:15:58;50.47;;;31.65;;
57395;SDS011;43222;52.912;6.940;2022-11-15T07:18:24;50.85;;;31.92;;
57395;SDS011;43222;52.912;6.940;2022-11-15T07:20:52;48.22;;;31.10;;
57395;SDS011;43222;52.912;6.940;2022-11-15T07:23:18;47.88;;;31.25;;
57395;SDS011;43222;52.912;6.940;2022-11-15T07:25:44;47.20;;;29.77;;
57395;SDS011;43222;52.912;6.940;2022-11-15T07:28:10;43.58;;;28.70;;
57395;SDS011;43222;52.912;6.940;2022-11-15T07:30:36;40.95;;;28.15;;
57395;SDS011;43222;52.912;6.940;2022-11-15T07:33:02;45.08;;;28.85;;
57395;SDS011;43222;52.912;6.940;2022-11-15T07:35:28;42.67;;;28.02;;
57395;SDS011;43222;52.912;6.940;2022-11-15T07:40:20;41.75;;;28.08;;
57395;SDS011;43222;52.912;6.940;2022-11-15T07:42:47;42.28;;;28.60;;
57395;SDS011;43222;52.912;6.940;2022-11-15T07:45:19;41.15;;;27.73;;
57395;SDS011;43222;52.912;6.940;2022-11-15T07:47:46;42.55;;;28.02;;
57395;SDS011;43222;52.912;6.940;2022-11-15T07:50:12;40.63;;;27.27;;
57395;SDS011;43222;52.912;6.940;2022-11-15T07:52:38;38.28;;;27.17;;
57395;SDS011;43222;52.912;6.940;2022-11-15T07:55:04;40.92;;;27.42;;
57395;SDS011;43222;52.912;6.940;2022-11-15T07:57:30;40.30;;;26.75;;
57395;SDS011;43222;52.912;6.940;2022-11-15T07:59:56;37.88;;;27.52;;
57395;SDS011;43222;52.912;6.940;2022-11-15T08:02:22;39.95;;;27.92;;
57395;SDS011;43222;52.912;6.940;2022-11-15T08:04:48;42.28;;;27.60;;
57395;SDS011;43222;52.912;6.940;2022-11-15T08:07:14;36.50;;;26.25;;
57395;SDS011;43222;52.912;6.940;2022-11-15T08:09:40;37.03;;;27.98;;
57395;SDS011;43222;52.912;6.940;2022-11-15T08:12:06;39.90;;;27.40;;
57395;SDS011;43222;52.912;6.940;2022-11-15T08:14:32;39.92;;;27.40;;
57395;SDS011;43222;52.912;6.940;2022-11-15T08:16:58;40.17;;;26.95;;
57395;SDS011;43222;52.912;6.940;2022-11-15T08:19:25;39.78;;;27.38;;
57395;SDS011;43222;52.912;6.940;2022-11-15T08:21:51;35.17;;;26.40;;
57395;SDS011;43222;52.912;6.940;2022-11-15T08:24:17;41.40;;;28.67;;
57395;SDS011;43222;52.912;6.940;2022-11-15T08:26:43;35.35;;;25.88;;
57395;SDS011;43222;52.912;6.940;2022-11-15T08:29:09;37.78;;;27.23;;
57395;SDS011;43222;52.912;6.940;2022-11-15T08:31:35;40.67;;;27.13;;
57395;SDS011;43222;52.912;6.940;2022-11-15T08:34:05;41.10;;;27.77;;
57395;SDS011;43222;52.912;6.940;2022-11-15T08:36:31;38.88;;;27.42;;
57395;SDS011;43222;52.912;6.940;2022-11-15T08:38:57;40.20;;;28.02;;
57395;SDS011;43222;52.912;6.940;2022-11-15T08:41:30;39.17;;;27.52;;
57395;SDS011;43222;52.912;6.940;2022-11-15T08:43:56;38.83;;;27.83;;
57395;SDS011;43222;52.912;6.940;2022-11-15T08:46:22;39.53;;;27.58;;
57395;SDS011;43222;52.912;6.940;2022-11-15T08:48:48;38.50;;;28.00;;
57395;SDS011;43222;52.912;6.940;2022-11-15T08:51:15;37.33;;;27.45;;
57395;SDS011;43222;52.912;6.940;2022-11-15T08:53:41;42.50;;;27.65;;
57395;SDS011;43222;52.912;6.940;2022-11-15T08:56:08;39.47;;;27.95;;
57395;SDS011;43222;52.912;6.940;2022-11-15T08:58:35;39.72;;;27.48;;
57395;SDS011;43222;52.912;6.940;2022-11-15T09:01:01;38.70;;;27.42;;
57395;SDS011;43222;52.912;6.940;2022-11-15T09:03:27;40.85;;;28.52;;
57395;SDS011;43222;52.912;6.940;2022-11-15T09:05:54;40.53;;;28.95;;
57395;SDS011;43222;52.912;6.940;2022-11-15T09:08:20;38.50;;;27.85;;
57395;SDS011;43222;52.912;6.940;2022-11-15T09:10:46;37.95;;;27.30;;
57395;SDS011;43222;52.912;6.940;2022-11-15T09:13:12;37.80;;;28.45;;
57395;SDS011;43222;52.912;6.940;2022-11-15T09:15:39;37.13;;;26.92;;
57395;SDS011;43222;52.912;6.940;2022-11-15T09:18:05;35.55;;;27.25;;
57395;SDS011;43222;52.912;6.940;2022-11-15T09:20:31;39.20;;;28.00;;
57395;SDS011;43222;52.912;6.940;2022-11-15T09:23:00;40.90;;;28.02;;
57395;SDS011;43222;52.912;6.940;2022-11-15T09:25:27;36.28;;;28.02;;
57395;SDS011;43222;52.912;6.940;2022-11-15T09:27:53;39.13;;;28.30;;
57395;SDS011;43222;52.912;6.940;2022-11-15T09:30:19;40.38;;;29.38;;
57395;SDS011;43222;52.912;6.940;2022-11-15T09:32:45;36.63;;;26.75;;
57395;SDS011;43222;52.912;6.940;2022-11-15T09:35:11;39.72;;;28.85;;
57395;SDS011;43222;52.912;6.940;2022-11-15T09:37:37;36.58;;;28.58;;
57395;SDS011;43222;52.912;6.940;2022-11-15T09:40:03;38.92;;;28.48;;
57395;SDS011;43222;52.912;6.940;2022-11-15T09:52:39;40.95;;;29.00;;
57395;SDS011;43222;52.912;6.940;2022-11-15T09:55:08;38.15;;;28.95;;
57395;SDS011;43222;52.912;6.940;2022-11-15T09:57:39;37.33;;;28.27;;
57395;SDS011;43222;52.912;6.940;2022-11-15T10:00:09;37.15;;;28.58;;
57395;SDS011;43222;52.912;6.940;2022-11-15T10:05:10;35.50;;;27.58;;
57395;SDS011;43222;52.912;6.940;2022-11-15T10:12:47;33.63;;;27.17;;
57395;SDS011;43222;52.912;6.940;2022-11-15T10:15:15;35.35;;;27.33;;
57395;SDS011;43222;52.912;6.940;2022-11-15T10:20:27;38.20;;;27.45;;
57395;SDS011;43222;52.912;6.940;2022-11-15T10:22:54;34.85;;;26.77;;
57395;SDS011;43222;52.912;6.940;2022-11-15T10:27:55;35.35;;;23.75;;
57395;SDS011;43222;52.912;6.940;2022-11-15T10:30:22;30.00;;;23.92;;
57395;SDS011;43222;52.912;6.940;2022-11-15T10:32:48;30.40;;;23.38;;
57395;SDS011;43222;52.912;6.940;2022-11-15T10:35:22;28.75;;;22.50;;
57395;SDS011;43222;52.912;6.940;2022-11-15T10:37:49;31.45;;;22.67;;
57395;SDS011;43222;52.912;6.940;2022-11-15T10:40:16;27.23;;;21.48;;
57395;SDS011;43222;52.912;6.940;2022-11-15T10:42:43;26.30;;;20.27;;
57395;SDS011;43222;52.912;6.940;2022-11-15T10:45:29;27.30;;;20.23;;
57395;SDS011;43222;52.912;6.940;2022-11-15T10:53:03;26.40;;;19.80;;
57395;SDS011;43222;52.912;6.940;2022-11-15T10:55:30;23.17;;;20.63;;
57395;SDS011;43222;52.912;6.940;2022-11-15T10:58:02;26.52;;;20.52;;
57395;SDS011;43222;52.912;6.940;2022-11-15T11:00:30;26.13;;;21.25;;
57395;SDS011;43222;52.912;6.940;2022-11-15T11:03:01;28.80;;;21.52;;
57395;SDS011;43222;52.912;6.940;2022-11-15T11:05:31;30.13;;;23.17;;
57395;SDS011;43222;52.912;6.940;2022-11-15T11:08:02;26.10;;;22.63;;
57395;SDS011;43222;52.912;6.940;2022-11-15T11:10:29;34.58;;;30.27;;
57395;SDS011;43222;52.912;6.940;2022-11-15T11:12:55;27.50;;;23.33;;
57395;SDS011;43222;52.912;6.940;2022-11-15T11:15:22;26.65;;;22.67;;
57395;SDS011;43222;52.912;6.940;2022-11-15T11:18:06;23.83;;;21.08;;
57395;SDS011;43222;52.912;6.940;2022-11-15T11:28:17;17.92;;;13.52;;
57395;SDS011;43222;52.912;6.940;2022-11-15T11:33:38;16.10;;;12.25;;
57395;SDS011;43222;52.912;6.940;2022-11-15T11:41:38;10.82;;;6.32;;
57395;SDS011;43222;52.912;6.940;2022-11-15T11:46:55;10.55;;;6.18;;
57395;SDS011;43222;52.912;6.940;2022-11-15T11:49:25;8.50;;;5.22;;
57395;SDS011;43222;52.912;6.940;2022-11-15T11:56:44;9.05;;;5.80;;
57395;SDS011;43222;52.912;6.940;2022-11-15T12:01:55;7.63;;;4.97;;
57395;SDS011;43222;52.912;6.940;2022-11-15T12:04:28;9.38;;;5.57;;
57395;SDS011;43222;52.912;6.940;2022-11-15T12:07:03;8.70;;;5.63;;
57395;SDS011;43222;52.912;6.940;2022-11-15T12:09:41;9.98;;;5.55;;
57395;SDS011;43222;52.912;6.940;2022-11-15T12:14:40;10.15;;;5.60;;
57395;SDS011;43222;52.912;6.940;2022-11-15T12:17:09;8.80;;;5.68;;
57395;SDS011;43222;52.912;6.940;2022-11-15T12:19:36;25.83;;;16.92;;
57395;SDS011;43222;52.912;6.940;2022-11-15T12:22:04;17.55;;;11.55;;
57395;SDS011;43222;52.912;6.940;2022-11-15T12:24:34;17.70;;;11.68;;
57395;SDS011;43222;52.912;6.940;2022-11-15T12:27:19;10.25;;;6.38;;
57395;SDS011;43222;52.912;6.940;2022-11-15T12:29:50;14.65;;;7.70;;
57395;SDS011;43222;52.912;6.940;2022-11-15T12:32:36;10.05;;;5.95;;
57395;SDS011;43222;52.912;6.940;2022-11-15T12:35:03;8.73;;;4.60;;
57395;SDS011;43222;52.912;6.940;2022-11-15T12:45:36;8.13;;;3.58;;
57395;SDS011;43222;52.912;6.940;2022-11-15T13:01:07;6.93;;;3.17;;
57395;SDS011;43222;52.912;6.940;2022-11-15T13:03:34;7.55;;;3.22;;
57395;SDS011;43222;52.912;6.940;2022-11-15T13:06:02;7.55;;;3.47;;
57395;SDS011;43222;52.912;6.940;2022-11-15T13:08:35;10.57;;;3.75;;
57395;SDS011;43222;52.912;6.940;2022-11-15T13:13:46;7.88;;;3.42;;
57395;SDS011;43222;52.912;6.940;2022-11-15T13:16:17;7.63;;;3.20;;
57395;SDS011;43222;52.912;6.940;2022-11-15T13:18:43;7.40;;;2.88;;
57395;SDS011;43222;52.912;6.940;2022-11-15T13:21:20;7.20;;;3.20;;
57395;SDS011;43222;52.912;6.940;2022-11-15T13:24:09;6.57;;;2.80;;
57395;SDS011;43222;52.912;6.940;2022-11-15T13:26:37;7.03;;;3.00;;
57395;SDS011;43222;52.912;6.940;2022-11-15T13:29:04;7.90;;;2.70;;
57395;SDS011;43222;52.912;6.940;2022-11-15T13:31:37;6.95;;;2.67;;
57395;SDS011;43222;52.912;6.940;2022-11-15T13:34:26;6.15;;;2.15;;
57395;SDS011;43222;52.912;6.940;2022-11-15T13:36:53;7.18;;;2.53;;
57395;SDS011;43222;52.912;6.940;2022-11-15T13:41:51;5.65;;;2.30;;
57395;SDS011;43222;52.912;6.940;2022-11-15T13:44:22;5.25;;;2.13;;
57395;SDS011;43222;52.912;6.940;2022-11-15T13:46:48;6.22;;;2.47;;
57395;SDS011;43222;52.912;6.940;2022-11-15T13:49:30;5.60;;;2.30;;
57395;SDS011;43222;52.912;6.940;2022-11-15T13:51:56;5.13;;;2.45;;
57395;SDS011;43222;52.912;6.940;2022-11-15T13:54:24;7.57;;;2.72;;
57395;SDS011;43222;52.912;6.940;2022-11-15T13:56:52;5.82;;;2.20;;
57395;SDS011;43222;52.912;6.940;2022-11-15T13:59:28;6.88;;;2.35;;
57395;SDS011;43222;52.912;6.940;2022-11-15T14:01:55;8.02;;;2.78;;
57395;SDS011;43222;52.912;6.940;2022-11-15T14:04:22;5.93;;;2.80;;
57395;SDS011;43222;52.912;6.940;2022-11-15T14:06:53;6.65;;;2.70;;
57395;SDS011;43222;52.912;6.940;2022-11-15T14:11:53;5.55;;;2.70;;
57395;SDS011;43222;52.912;6.940;2022-11-15T14:14:23;8.32;;;3.20;;
57395;SDS011;43222;52.912;6.940;2022-11-15T14:16:50;5.43;;;2.97;;
57395;SDS011;43222;52.912;6.940;2022-11-15T14:22:31;6.03;;;2.92;;
57395;SDS011;43222;52.912;6.940;2022-11-15T14:24:32;7.75;;;3.10;;
57395;SDS011;43222;52.912;6.940;2022-11-15T14:27:15;6.18;;;3.65;;
57395;SDS011;43222;52.912;6.940;2022-11-15T14:29:41;6.65;;;3.45;;
57395;SDS011;43222;52.912;6.940;2022-11-15T14:32:17;9.13;;;3.35;;
57395;SDS011;43222;52.912;6.940;2022-11-15T14:34:44;6.47;;;3.58;;
57395;SDS011;43222;52.912;6.940;2022-11-15T14:37:22;8.02;;;4.05;;
57395;SDS011;43222;52.912;6.940;2022-11-15T14:39:49;6.18;;;3.80;;
57395;SDS011;43222;52.912;6.940;2022-11-15T14:42:18;6.53;;;3.83;;
57395;SDS011;43222;52.912;6.940;2022-11-15T14:44:44;7.70;;;3.85;;
57395;SDS011;43222;52.912;6.940;2022-11-15T14:47:10;7.10;;;3.88;;
57395;SDS011;43222;52.912;6.940;2022-11-15T14:49:36;7.82;;;3.97;;
57395;SDS011;43222;52.912;6.940;2022-11-15T14:52:04;7.03;;;3.78;;
57395;SDS011;43222;52.912;6.940;2022-11-15T14:54:30;7.05;;;4.20;;
57395;SDS011;43222;52.912;6.940;2022-11-15T14:56:56;7.55;;;3.97;;
57395;SDS011;43222;52.912;6.940;2022-11-15T14:59:22;7.10;;;4.10;;
57395;SDS011;43222;52.912;6.940;2022-11-15T15:01:48;6.55;;;4.25;;
57395;SDS011;43222;52.912;6.940;2022-11-15T15:04:15;6.68;;;4.40;;
57395;SDS011;43222;52.912;6.940;2022-11-15T15:06:40;7.15;;;4.20;;
57395;SDS011;43222;52.912;6.940;2022-11-15T15:09:07;7.45;;;4.53;;
57395;SDS011;43222;52.912;6.940;2022-11-15T15:11:33;7.60;;;4.80;;
57395;SDS011;43222;52.912;6.940;2022-11-15T15:13:59;6.90;;;4.75;;
57395;SDS011;43222;52.912;6.940;2022-11-15T15:16:26;6.90;;;4.75;;
57395;SDS011;43222;52.912;6.940;2022-11-15T15:18:52;7.28;;;4.55;;
57395;SDS011;43222;52.912;6.940;2022-11-15T15:21:22;8.07;;;5.18;;
57395;SDS011;43222;52.912;6.940;2022-11-15T15:23:48;10.27;;;5.22;;
57395;SDS011;43222;52.912;6.940;2022-11-15T15:26:14;7.50;;;5.28;;
57395;SDS011;43222;52.912;6.940;2022-11-15T15:28:40;7.82;;;5.30;;
57395;SDS011;43222;52.912;6.940;2022-11-15T15:31:07;7.07;;;5.30;;
57395;SDS011;43222;52.912;6.940;2022-11-15T15:33:33;7.38;;;5.45;;
57395;SDS011;43222;52.912;6.940;2022-11-15T15:35:59;8.73;;;5.55;;
57395;SDS011;43222;52.912;6.940;2022-11-15T15:38:25;9.63;;;5.07;;
57395;SDS011;43222;52.912;6.940;2022-11-15T15:40:51;8.02;;;5.22;;
57395;SDS011;43222;52.912;6.940;2022-11-15T15:43:17;8.35;;;5.30;;
57395;SDS011;43222;52.912;6.940;2022-11-15T15:45:43;6.85;;;4.40;;
57395;SDS011;43222;52.912;6.940;2022-11-15T15:48:11;9.30;;;5.50;;
57395;SDS011;43222;52.912;6.940;2022-11-15T15:50:37;7.97;;;5.47;;
57395;SDS011;43222;52.912;6.940;2022-11-15T15:53:03;8.82;;;5.93;;
57395;SDS011;43222;52.912;6.940;2022-11-15T15:55:30;7.70;;;5.32;;
57395;SDS011;43222;52.912;6.940;2022-11-15T15:57:56;10.50;;;5.75;;
57395;SDS011;43222;52.912;6.940;2022-11-15T16:00:22;6.93;;;5.03;;
57395;SDS011;43222;52.912;6.940;2022-11-15T16:02:49;7.05;;;5.13;;
57395;SDS011;43222;52.912;6.940;2022-11-15T16:05:16;7.25;;;5.18;;
57395;SDS011;43222;52.912;6.940;2022-11-15T16:07:42;8.07;;;4.97;;
57395;SDS011;43222;52.912;6.940;2022-11-15T16:10:22;7.65;;;5.03;;
57395;SDS011;43222;52.912;6.940;2022-11-15T16:12:50;7.93;;;4.80;;
57395;SDS011;43222;52.912;6.940;2022-11-15T16:15:16;6.72;;;4.82;;
57395;SDS011;43222;52.912;6.940;2022-11-15T16:17:55;7.38;;;4.18;;
57395;SDS011;43222;52.912;6.940;2022-11-15T16:22:57;7.60;;;3.85;;
57395;SDS011;43222;52.912;6.940;2022-11-15T16:25:23;8.07;;;3.72;;
57395;SDS011;43222;52.912;6.940;2022-11-15T16:27:50;6.97;;;3.40;;
57395;SDS011;43222;52.912;6.940;2022-11-15T16:30:17;6.53;;;3.25;;